Flugplatz Leutkirch-Unterzeil

Für EDNL sind keine METAR/TAF Berichte vorhanden.
Es werden die Flugwettermeldungen vom Flugplatz Memmingen Allgau in 22 km Entfernung angezeigt.

Bericht für EDJA

vom 20.10. um 02:50 UTC

Wind 3 kt aus 220°

Sichtweite 10 km oder mehr

gering bewölkt in 15000 ft

Temperatur 7.0°C

Taupunkt 5.0°C

Luftfeuchtigkeit 87%

Luftdruck 1020 hPa

EDJA 200250Z AUTO 22003KT 9999 // FEW150/// 07/05 Q1020
Keine Prognose (TAF) verfügbar.
Impressum